University Center, MI

1:52 PM EST on December 05, 2016 (GMT -0500)
Delta College | | Change Station

Elev 637 ft 43.56 °N, 83.99 °W | Updated 49 seconds ago

Mostly Cloudy
Mostly Cloudy
39.2 °F
Feels Like 34 °F
N
8.0
Wind Variable Wind from WSW
Gusts 16.0 mph

Today
High -- | Low -- °F
--% Chance of Precip.
Yesterday
High -- | Low -- °F
Precip. -- in
Pressure 30.01 in
Visibility 10.0 miles
Clouds Mostly Cloudy 2500 ft
Windchill 34 °F
Dew Point 34 °F
Humidity 82%
Rainfall 0.00 in
Snow Depth Not available.
7:53 AM 4:59 PM
Waxing Crescent, 34% visible
METAR KMBS 051753Z 23014KT 10SM BKN025 03/01 A2999 RMK AO2 SLP162 T00330006 10033 20011 53005
Pressure 30.01 in
Visibility 10.0 miles
Clouds Mostly Cloudy 2500 ft
Windchill 34 °F
Dew Point 34 °F
Humidity 82%
Rainfall 0.00 in
Snow Depth Not available.
7:53 AM 4:59 PM
Waxing Crescent, 34% visible
METAR KMBS 051753Z 23014KT 10SM BKN025 03/01 A2999 RMK AO2 SLP162 T00330006 10033 20011 53005

10-Day Weather Forecast

Almanac

Astronomy

Dec. 05, 2016 Rise Set
Actual Time
Civil Twilight
Nautical Twilight
Astronomical Twilight
Moon
Length of Visible Light
Length of Day
Tomorrow will be .
, % of the Moon is Illuminated

Today's Extremes

State Highs State Lows

Community

WunderPhotos

Upload Photos

1,955,851 photos uploaded!

WunderBlog® & News

Nearby

Air Quality

  Air Quality AQ Index Pollutant
Not available.

Snow Depth

Station Depth Elevation

Earthquake Activity

City Distance Mag. Time & Date
Minimum magnitude displayed is 2.5.

Coastal Water Temperatures

Place Temperature

Stations

Nearby Weather Stations

Station Location Temp. Windchill Dew Point Humidity Wind Precip. Elev Updated Type
                   

Watches & Warnings

There are currently no watches in effect.